Historyczne dane pomiarowe

Dodano dane terminowe – wersja testowa.

Dane z okresu 1951-2019

Wersja bazy: 1.34 [2019-03-16, lista zmian], aktualizacja planowana na 2019-04-15

Dane meteo z obszaru Polski uzyskane na podstawie danych udostępnionych przez Instytut Meteorologii i Gospodarki Wodnej – Państwowy Instytut Badawczy.

 

Wybierz Datę:    

       

TemperaturaWilgotnośćZachmurzenieWiatrCiśnienieWidzialnośćZjawiska
 Data    tng td wb rh cc ccl cl cm ch dir g1 g2 mslp ppp      
1973-05-09 00:00:00 -1.5--- -1.7 -1.599wxwx9wx--- 835.8 0.0---wxw1
1973-05-09 01:00:00 -2.2------wxwx7wx--- 835.6----wxw1
1973-05-09 02:00:00 -2.1------wxwx8wx--- 835.5----wxw1
1973-05-09 03:00:00 -2.0--- -2.3 -2.098wxwx6wx--- 835.7----wxw1
1973-05-09 04:00:00 -1.8------wxwx9wx--- 835.8----wxw1
1973-05-09 05:00:00 -1.7------wxwx12wx--- 835.6----wxw1
1973-05-09 06:00:00 -2.3--- -2.6 -2.398wxwxwx11wx--- 835.9 0.0---wxw1
1973-05-09 07:00:00 -2.0------wxwxwx11wx--- 836.3----wx
1973-05-09 08:00:00 -1.6------wxwxwx6wx--- 836.7----wx
1973-05-09 09:00:00 -1.8--- -2.0 -1.898wxwxwx7wx--- 837.0----wx
1973-05-09 10:00:00 -2.0------wxwx6wx--- 837.2----wxw1
1973-05-09 11:00:00 -1.8------wxwx6wx--- 837.2----wxw1
1973-05-09 12:00:00 0.2--- 0.2 0.2100wxwxwx2wx--- 837.3 1.5---wxw1
1973-05-09 13:00:00 -0.8------wxwxwx5wx--- 837.6----wx
1973-05-09 14:00:00 -1.2------wxwxwx9wx--- 837.5----wx
1973-05-09 15:00:00 -1.4--- -1.6 -1.499wxwxwx9wx--- 837.8----wx
1973-05-09 16:00:00 -1.4------wxwxwx8wx--- 837.9----wx
1973-05-09 17:00:00 -1.8------wxwx12wx--- 837.8----wxw1
1973-05-09 18:00:00 -1.8--- -2.0 -1.898wxwx13wx--- 838.0 0.0---wx
1973-05-09 19:00:00 -2.2------wxwx10wx--- 838.3----wxw1
1973-05-09 20:00:00 -2.2------wxwx11wx--- 838.3----wxw1
1973-05-09 21:00:00 -2.2--- -2.5 -2.298wxwx10wx--- 838.3----wxw1
1973-05-09 22:00:00 -2.2------wxwx7wx--- 838.6----wxw1
1973-05-09 23:00:00 -2.8------wxwx3wx--- 838.8----wx

 

Źródłem pochodzenia danych jest Instytut Meteorologii i Gospodarki Wodnej – Państwowy Instytut Badawczy. Dane Instytutu Meteorologii i Gospodarki Wodnej – Państwowego Instytutu Badawczego zostały przetworzone.

Dane źródłowe można odnaleźć na stronie https://dane.imgw.pl